Time;durP1;ratioP1;P1;durP2;ratioP2;P2;SDS_P1;SDS_P2;PMS_P1;PMS_P2;Temp;Humidity;BMP_temperature;BMP_pressure;BME280_temperature;BME280_humidity;BME280_pressure;Samples;Min_cycle;Max_cycle;Signal;HPM_P1;HPM_P2
2021/10/03 00:00:50;;;;;;;22.77;15.75;;;;;;;13.60;50.64;101023.24;1822282;77;21035;-62
2021/10/03 00:03:19;;;;;;;23.75;15.93;;;;;;;13.59;50.66;101022.92;1815012;77;21352;-62
2021/10/03 00:05:48;;;;;;;24.35;15.25;;;;;;;13.55;50.69;101036.57;1817246;77;21045;-63
2021/10/03 00:08:16;;;;;;;25.48;16.20;;;;;;;13.53;50.71;101029.22;1822417;77;22034;-62
2021/10/03 00:10:44;;;;;;;17.77;14.87;;;;;;;13.52;50.76;101030.23;1837439;77;21591;-62
2021/10/03 00:13:10;;;;;;;21.42;15.45;;;;;;;13.51;50.72;101040.55;1834157;77;21005;-62
2021/10/03 00:15:37;;;;;;;21.97;16.12;;;;;;;13.49;50.77;101041.20;1824465;77;21078;-63
2021/10/03 00:18:06;;;;;;;22.10;15.63;;;;;;;13.46;50.73;101036.66;1824942;77;21017;-62
2021/10/03 00:20:33;;;;;;;24.92;17.05;;;;;;;13.42;50.75;101036.13;1822906;77;21127;-64
2021/10/03 00:23:00;;;;;;;20.48;16.73;;;;;;;13.39;50.84;101031.13;1780117;78;20969;-61
2021/10/03 00:25:28;;;;;;;21.93;17.75;;;;;;;13.36;50.89;101032.75;1824628;77;21015;-62
2021/10/03 00:27:55;;;;;;;23.95;16.57;;;;;;;13.34;50.94;101038.75;1817844;77;21052;-62
2021/10/03 00:30:22;;;;;;;22.40;16.30;;;;;;;13.31;51.04;101031.90;1822694;78;21072;-63
2021/10/03 00:32:48;;;;;;;24.70;18.23;;;;;;;13.30;51.06;101026.70;1826663;78;21134;-63
2021/10/03 00:35:15;;;;;;;20.50;16.90;;;;;;;13.28;51.12;101028.66;1831639;78;21048;-61
2021/10/03 00:37:41;;;;;;;27.60;17.87;;;;;;;13.26;51.15;101031.98;1828502;77;21532;-63
2021/10/03 00:40:10;;;;;;;27.65;19.05;;;;;;;13.23;51.17;101036.28;1810398;77;21494;-62
2021/10/03 00:42:37;;;;;;;27.30;17.57;;;;;;;13.22;51.22;101035.95;1831417;77;21017;-63
2021/10/03 00:45:07;;;;;;;23.92;18.85;;;;;;;13.19;51.28;101035.75;1828209;77;21108;-64
2021/10/03 00:48:29;;;;;;;23.85;18.80;;;;;;;13.18;51.36;101028.75;1887527;75;28674;-62
2021/10/03 00:50:55;;;;;;;28.57;19.45;;;;;;;13.13;51.44;101032.36;1856775;77;20926;-62
2021/10/03 00:53:22;;;;;;;29.35;19.70;;;;;;;13.10;51.42;101031.36;1857212;77;21097;-62
2021/10/03 00:55:50;;;;;;;31.02;19.32;;;;;;;13.08;51.44;101034.17;1859874;77;22093;-62
2021/10/03 00:58:17;;;;;;;24.40;18.90;;;;;;;13.06;51.50;101028.66;1856628;77;20949;-62
2021/10/03 01:00:43;;;;;;;27.70;19.60;;;;;;;13.05;51.52;101021.62;1839641;77;20977;-62
2021/10/03 01:03:10;;;;;;;28.32;19.12;;;;;;;13.03;51.56;101031.11;1858697;77;21513;-63
2021/10/03 01:05:37;;;;;;;30.92;20.80;;;;;;;13.01;51.61;101027.76;1835369;77;21094;-62
2021/10/03 01:08:04;;;;;;;23.62;19.55;;;;;;;13.00;51.65;101030.09;1855274;77;20966;-62
2021/10/03 01:10:32;;;;;;;30.20;20.70;;;;;;;12.98;51.71;101026.75;1827809;77;21067;-62
2021/10/03 01:13:08;;;;;;;29.00;20.60;;;;;;;12.95;51.78;101026.53;1842547;77;21060;-62
2021/10/03 01:15:36;;;;;;;28.02;20.80;;;;;;;12.93;51.77;101033.02;1853193;77;20998;-62
2021/10/03 01:18:05;;;;;;;25.68;20.55;;;;;;;12.89;51.75;101031.15;1839197;77;21084;-60
2021/10/03 01:20:32;;;;;;;24.95;19.07;;;;;;;12.87;51.74;101034.97;1841992;77;20999;-62
2021/10/03 01:23:03;;;;;;;27.25;19.27;;;;;;;12.84;51.73;101028.59;1858462;77;21052;-62
2021/10/03 01:25:27;;;;;;;31.65;20.02;;;;;;;12.81;51.65;101027.58;1855130;77;21080;-62
2021/10/03 01:27:53;;;;;;;26.10;20.37;;;;;;;12.79;51.68;101021.89;1856759;77;21072;-63
2021/10/03 01:30:19;;;;;;;27.25;19.42;;;;;;;12.77;51.71;101023.04;1858385;77;21106;-63
2021/10/03 01:32:47;;;;;;;28.40;20.00;;;;;;;12.75;51.74;101019.69;1833364;77;21644;-62
2021/10/03 01:35:14;;;;;;;32.35;21.02;;;;;;;12.74;51.74;101020.16;1831658;77;21017;-62
2021/10/03 01:37:42;;;;;;;28.20;19.35;;;;;;;12.73;51.82;101022.50;1823419;77;21179;-62
2021/10/03 01:40:09;;;;;;;27.25;19.98;;;;;;;12.71;51.85;101024.48;1837772;77;21008;-62
2021/10/03 01:42:37;;;;;;;31.07;20.70;;;;;;;12.70;51.89;101025.45;1854352;77;21901;-62
2021/10/03 01:45:07;;;;;;;28.77;21.02;;;;;;;12.69;51.95;101022.45;1825772;77;21069;-61
2021/10/03 01:47:35;;;;;;;31.93;21.42;;;;;;;12.69;51.95;101025.12;1844571;76;21024;-62
2021/10/03 01:50:03;;;;;;;31.27;20.52;;;;;;;12.68;51.97;101024.77;1831046;77;21076;-64
2021/10/03 01:52:32;;;;;;;28.07;20.25;;;;;;;12.68;51.92;101024.77;1834649;77;20991;-62
2021/10/03 01:55:01;;;;;;;26.37;20.57;;;;;;;12.67;51.92;101019.58;1856388;77;21127;-61
2021/10/03 01:57:28;;;;;;;28.98;21.60;;;;;;;12.65;51.93;101022.42;1837710;77;21474;-62
2021/10/03 01:59:54;;;;;;;30.45;20.45;;;;;;;12.63;51.92;101018.20;1839740;77;21102;-63
2021/10/03 02:02:20;;;;;;;30.57;20.57;;;;;;;12.62;51.91;101026.70;1859123;77;21028;-62
2021/10/03 02:04:47;;;;;;;29.80;21.30;;;;;;;12.61;51.91;101026.84;1831721;77;21024;-62
2021/10/03 02:07:15;;;;;;;28.47;20.85;;;;;;;12.58;51.90;101026.16;1828901;77;21509;-63
2021/10/03 02:09:42;;;;;;;28.45;20.57;;;;;;;12.58;51.84;101022.67;1794091;77;21128;-62
2021/10/03 02:12:10;;;;;;;30.08;20.92;;;;;;;12.56;51.78;101022.81;1822994;77;21013;-62
2021/10/03 02:14:37;;;;;;;32.05;22.37;;;;;;;12.53;51.74;101019.59;1788243;77;21045;-61
2021/10/03 02:17:06;;;;;;;29.25;21.27;;;;;;;12.51;51.86;101021.58;1846641;77;21040;-62
2021/10/03 02:19:33;;;;;;;25.30;21.20;;;;;;;12.49;51.93;101024.89;1843846;77;22318;-62
2021/10/03 02:22:00;;;;;;;29.72;21.15;;;;;;;12.46;51.95;101026.03;1857130;77;21004;-61
2021/10/03 02:24:27;;;;;;;31.20;20.97;;;;;;;12.44;51.99;101020.48;1834699;77;21048;-62
2021/10/03 02:26:54;;;;;;;27.22;20.48;;;;;;;12.41;52.04;101026.97;1836776;77;21021;-62
2021/10/03 02:29:20;;;;;;;33.35;21.10;;;;;;;12.40;52.06;101021.30;1852832;77;20974;-62
2021/10/03 02:31:46;;;;;;;33.28;20.25;;;;;;;12.41;52.07;101023.47;1851077;77;23324;-61
2021/10/03 02:34:12;;;;;;;29.25;20.85;;;;;;;12.39;52.07;101028.44;1847249;77;21492;-63
2021/10/03 02:36:39;;;;;;;27.85;20.30;;;;;;;12.38;52.05;101028.11;1821601;77;21110;-62
2021/10/03 02:39:05;;;;;;;28.32;21.65;;;;;;;12.38;52.00;101025.45;1847318;77;21081;-62
2021/10/03 02:41:32;;;;;;;26.90;19.73;;;;;;;12.38;51.94;101032.11;1857050;77;21028;-62
2021/10/03 02:43:59;;;;;;;31.62;21.62;;;;;;;12.37;51.92;101034.41;1837288;77;21053;-62
2021/10/03 02:46:25;;;;;;;25.77;20.72;;;;;;;12.35;51.94;101033.73;1829075;77;21157;-60
2021/10/03 02:48:52;;;;;;;24.87;20.65;;;;;;;12.32;52.01;101033.17;1839494;77;21073;-62
2021/10/03 02:51:25;;;;;;;26.80;21.05;;;;;;;12.30;52.06;101031.16;1826874;77;21020;-62
2021/10/03 02:53:52;;;;;;;28.52;20.35;;;;;;;12.28;52.07;101032.63;1853728;77;21458;-61
2021/10/03 02:56:22;;;;;;;34.73;21.05;;;;;;;12.25;52.05;101030.28;1842036;77;21119;-62
2021/10/03 02:58:48;;;;;;;31.37;21.75;;;;;;;12.24;52.05;101028.59;1848040;77;21013;-62
2021/10/03 03:01:15;;;;;;;32.23;22.52;;;;;;;12.23;52.10;101028.73;1839845;77;21073;-62
2021/10/03 03:03:46;;;;;;;29.15;20.52;;;;;;;12.22;52.11;101029.73;1834906;77;21050;-63
2021/10/03 03:06:12;;;;;;;30.72;21.62;;;;;;;12.19;52.14;101032.20;1846852;77;21111;-61
2021/10/03 03:08:38;;;;;;;29.52;21.42;;;;;;;12.17;52.15;101032.84;1856912;77;22386;-61
2021/10/03 03:11:05;;;;;;;28.77;21.37;;;;;;;12.15;52.16;101032.16;1856394;77;21021;-63
2021/10/03 03:13:32;;;;;;;29.77;20.52;;;;;;;12.14;52.13;101026.47;1859267;77;20982;-63
2021/10/03 03:15:58;;;;;;;26.73;21.65;;;;;;;12.13;52.13;101027.44;1833972;77;21521;-62
2021/10/03 03:18:24;;;;;;;29.00;21.10;;;;;;;12.10;52.12;101023.25;1854039;77;21556;-62
2021/10/03 03:20:51;;;;;;;28.10;21.33;;;;;;;12.09;52.14;101030.05;1836486;77;21493;-61
2021/10/03 03:23:17;;;;;;;25.75;20.12;;;;;;;12.08;52.17;101028.39;1858508;77;20989;-62
2021/10/03 03:25:43;;;;;;;26.82;22.67;;;;;;;12.05;52.26;101024.17;1823576;77;21059;-62
2021/10/03 03:28:10;;;;;;;23.98;20.37;;;;;;;12.04;52.31;101027.01;1839827;77;21003;-62
2021/10/03 03:30:37;;;;;;;26.62;20.25;;;;;;;12.04;52.40;101035.83;1857090;77;21064;-62
2021/10/03 03:33:04;;;;;;;29.63;21.07;;;;;;;12.04;52.42;101027.01;1822384;77;21130;-62
2021/10/03 03:35:31;;;;;;;30.17;21.15;;;;;;;12.04;52.44;101030.50;1822176;77;21019;-62
2021/10/03 03:37:57;;;;;;;28.52;20.72;;;;;;;12.04;52.41;101033.67;1825412;77;21057;-62
2021/10/03 03:40:24;;;;;;;27.65;20.52;;;;;;;12.01;52.30;101030.78;1840719;77;20982;-62
2021/10/03 03:42:51;;;;;;;28.73;21.80;;;;;;;12.01;52.30;101037.44;1831661;77;21012;-63
2021/10/03 03:45:17;;;;;;;27.93;20.72;;;;;;;11.99;52.25;101036.28;1858684;77;21052;-61
2021/10/03 03:47:44;;;;;;;26.93;21.75;;;;;;;11.97;52.18;101035.55;1829154;77;21030;-61
2021/10/03 03:50:13;;;;;;;30.08;21.70;;;;;;;11.95;52.19;101036.70;1840905;77;21060;-62
2021/10/03 03:52:40;;;;;;;26.90;20.55;;;;;;;11.93;52.12;101038.67;1830951;77;20998;-62
2021/10/03 03:55:08;;;;;;;31.93;21.68;;;;;;;11.88;52.21;101035.09;1830470;77;21052;-62
2021/10/03 03:57:35;;;;;;;28.38;21.50;;;;;;;11.84;52.29;101032.84;1838659;77;21146;-62
2021/10/03 04:00:03;;;;;;;29.02;22.22;;;;;;;11.80;52.35;101038.47;1830186;77;21034;-63
2021/10/03 04:02:31;;;;;;;31.77;22.52;;;;;;;11.78;52.46;101039.58;1839979;77;21041;-62
2021/10/03 04:04:57;;;;;;;29.27;21.50;;;;;;;11.75;52.47;101042.55;1820446;77;21493;-62
2021/10/03 04:07:24;;;;;;;28.70;22.07;;;;;;;11.72;52.47;101043.66;1839821;77;21557;-62
2021/10/03 04:09:50;;;;;;;28.30;21.15;;;;;;;11.70;52.50;101040.30;1828442;77;21105;-63
2021/10/03 04:12:17;;;;;;;30.85;21.50;;;;;;;11.67;52.56;101046.43;1821501;77;21032;-63
2021/10/03 04:14:43;;;;;;;26.35;22.13;;;;;;;11.65;52.57;101053.22;1849032;77;21028;-62
2021/10/03 04:17:10;;;;;;;26.68;21.73;;;;;;;11.65;52.57;101059.02;1859205;77;21552;-63
2021/10/03 04:19:36;;;;;;;35.35;22.42;;;;;;;11.64;52.54;101059.52;1838257;77;21550;-62
2021/10/03 04:22:03;;;;;;;28.42;22.93;;;;;;;11.61;52.56;101064.64;1833413;77;21522;-62
2021/10/03 04:24:30;;;;;;;31.15;24.23;;;;;;;11.59;52.56;101066.61;1845626;77;21048;-63
2021/10/03 04:26:56;;;;;;;26.57;21.25;;;;;;;11.55;52.62;101062.55;1849166;77;20994;-63
2021/10/03 04:29:22;;;;;;;29.77;22.50;;;;;;;11.55;52.63;101072.34;1821276;77;21044;-63
2021/10/03 04:31:49;;;;;;;27.85;22.27;;;;;;;11.53;52.58;101073.84;1825575;77;21002;-62
2021/10/03 04:34:15;;;;;;;32.75;24.32;;;;;;;11.52;52.66;101078.80;1849833;77;23298;-63
2021/10/03 04:36:41;;;;;;;31.25;22.87;;;;;;;11.50;52.67;101082.09;1856920;77;21485;-62
2021/10/03 04:39:07;;;;;;;31.55;23.87;;;;;;;11.49;52.74;101079.09;1856894;77;21492;-62
2021/10/03 04:41:34;;;;;;;29.95;22.95;;;;;;;11.47;52.81;101077.03;1859083;77;21052;-61
2021/10/03 04:44:01;;;;;;;28.10;22.17;;;;;;;11.48;52.82;101084.55;1836336;77;21006;-62
2021/10/03 04:46:28;;;;;;;28.15;22.48;;;;;;;11.46;52.85;101081.19;1820871;77;21122;-63
2021/10/03 04:48:54;;;;;;;30.97;22.90;;;;;;;11.46;52.91;101085.19;1840405;77;21029;-62
2021/10/03 04:51:20;;;;;;;31.90;23.87;;;;;;;11.44;52.94;101081.83;1833480;77;21079;-62
2021/10/03 04:53:48;;;;;;;28.02;22.13;;;;;;;11.44;52.99;101083.16;1834189;77;21002;-63
2021/10/03 04:56:14;;;;;;;31.25;24.70;;;;;;;11.44;53.02;101085.32;1836873;76;21028;-63
2021/10/03 04:58:40;;;;;;;33.88;22.85;;;;;;;11.44;53.05;101089.81;1826884;77;21077;-63
2021/10/03 05:01:09;;;;;;;32.15;22.52;;;;;;;11.44;53.09;101083.16;1827672;77;20973;-63
2021/10/03 05:03:36;;;;;;;29.45;22.60;;;;;;;11.44;53.11;101090.64;1842125;77;21520;-61
2021/10/03 05:06:07;;;;;;;32.88;23.60;;;;;;;11.43;53.14;101090.28;1851013;77;21700;-62
2021/10/03 05:08:31;;;;;;;27.40;23.52;;;;;;;11.43;53.21;101085.45;1835277;77;21030;-63
2021/10/03 05:10:58;;;;;;;32.10;24.05;;;;;;;11.44;53.24;101080.00;1843057;76;21083;-64
2021/10/03 05:13:25;;;;;;;30.95;22.58;;;;;;;11.45;53.27;101085.66;1831730;76;20994;-63
2021/10/03 05:15:52;;;;;;;35.95;22.32;;;;;;;11.46;53.33;101078.53;1858213;77;21131;-63
2021/10/03 05:18:18;;;;;;;29.55;22.42;;;;;;;11.47;53.33;101073.05;1841519;77;21291;-62
2021/10/03 05:20:45;;;;;;;27.13;22.80;;;;;;;11.49;53.45;101077.77;1836363;77;21083;-63
2021/10/03 05:23:11;;;;;;;30.20;23.22;;;;;;;11.52;53.51;101073.97;1862487;77;23292;-63
2021/10/03 05:25:38;;;;;;;27.13;21.85;;;;;;;11.52;53.52;101076.13;1862504;77;21290;-61
2021/10/03 05:28:04;;;;;;;29.32;22.07;;;;;;;11.49;53.54;101063.13;1863947;76;21041;-63
2021/10/03 05:30:31;;;;;;;27.30;22.20;;;;;;;11.57;53.56;101075.23;1864592;76;21564;-61
2021/10/03 05:32:57;;;;;;;28.40;21.35;;;;;;;11.58;53.61;101071.56;1825812;77;21020;-62
2021/10/03 05:35:23;;;;;;;31.77;22.93;;;;;;;11.60;53.67;101077.59;1821480;77;21098;-63
2021/10/03 05:37:50;;;;;;;26.10;21.65;;;;;;;11.61;53.76;101081.94;1835119;77;20994;-63
2021/10/03 05:40:16;;;;;;;29.57;21.10;;;;;;;11.64;53.81;101079.98;1844818;77;21024;-63
2021/10/03 05:42:42;;;;;;;28.73;22.27;;;;;;;11.66;53.92;101077.52;1842000;77;21072;-62
2021/10/03 05:45:09;;;;;;;29.65;22.30;;;;;;;11.70;53.98;101082.06;1833244;77;21013;-63
2021/10/03 05:47:36;;;;;;;29.87;23.32;;;;;;;11.72;54.00;101082.76;1845740;76;21123;-64
2021/10/03 05:50:05;;;;;;;28.75;22.75;;;;;;;11.74;54.06;101076.80;1837278;77;21092;-62
2021/10/03 05:52:31;;;;;;;29.20;23.05;;;;;;;11.77;54.10;101078.69;1837045;77;21012;-63
2021/10/03 05:54:58;;;;;;;30.60;22.85;;;;;;;11.80;54.10;101080.21;1842540;77;20980;-61
2021/10/03 05:57:24;;;;;;;25.37;20.05;;;;;;;11.85;54.18;101077.97;1838567;77;21032;-63
2021/10/03 05:59:50;;;;;;;27.30;22.65;;;;;;;11.88;54.26;101083.02;1828476;77;21081;-61
2021/10/03 06:02:17;;;;;;;27.80;21.12;;;;;;;11.93;54.30;101086.60;1860551;77;21025;-63
2021/10/03 06:04:43;;;;;;;31.27;22.52;;;;;;;11.97;54.40;101089.32;1850852;77;21073;-62
2021/10/03 06:07:09;;;;;;;30.92;22.50;;;;;;;12.00;54.47;101091.71;1848552;77;21024;-62
2021/10/03 06:09:36;;;;;;;28.50;22.00;;;;;;;12.04;54.58;101093.09;1849188;77;20997;-63
2021/10/03 06:12:04;;;;;;;28.45;22.50;;;;;;;12.06;54.67;101090.30;1858907;77;21715;-63
2021/10/03 06:14:32;;;;;;;28.65;21.45;;;;;;;12.10;54.76;101094.34;1832326;77;21028;-63
2021/10/03 06:17:00;;;;;;;27.75;22.48;;;;;;;12.14;54.81;101091.73;1846066;77;21010;-61
2021/10/03 06:19:28;;;;;;;29.35;21.87;;;;;;;12.17;54.86;101093.62;1846516;77;21087;-63
2021/10/03 06:21:54;;;;;;;29.65;21.73;;;;;;;12.23;54.87;101097.53;1845343;77;21025;-63
2021/10/03 06:24:22;;;;;;;27.22;21.82;;;;;;;12.28;54.96;101096.58;1830658;77;21151;-65
2021/10/03 06:26:48;;;;;;;28.47;21.10;;;;;;;12.34;55.00;101095.16;1841487;77;21001;-63
2021/10/03 06:29:16;;;;;;;28.50;20.70;;;;;;;12.41;55.01;101098.09;1843520;77;21052;-62
2021/10/03 06:31:42;;;;;;;29.55;20.02;;;;;;;12.46;55.01;101093.14;1842563;77;21076;-63
2021/10/03 06:34:09;;;;;;;26.07;19.90;;;;;;;12.53;54.82;101096.90;1846984;77;21017;-63
2021/10/03 06:36:35;;;;;;;24.95;19.50;;;;;;;12.59;54.64;101094.97;1836730;77;21115;-63
2021/10/03 06:39:03;;;;;;;27.10;20.60;;;;;;;12.65;54.39;101090.41;1831128;77;21005;-63
2021/10/03 06:41:30;;;;;;;24.85;20.02;;;;;;;12.72;54.16;101092.80;1818838;77;21039;-63
2021/10/03 06:43:57;;;;;;;27.15;20.02;;;;;;;12.77;54.19;101089.20;1846651;77;20996;-62
2021/10/03 06:46:23;;;;;;;24.98;18.73;;;;;;;12.84;54.09;101090.76;1833947;77;21131;-63
2021/10/03 06:48:50;;;;;;;27.98;19.52;;;;;;;12.92;54.18;101088.67;1838854;77;21172;-63
2021/10/03 06:51:16;;;;;;;24.12;19.20;;;;;;;12.98;54.16;101088.09;1809758;78;21074;-64
2021/10/03 06:53:44;;;;;;;25.50;18.37;;;;;;;13.05;54.18;101086.98;1809744;78;21039;-63
2021/10/03 06:56:10;;;;;;;24.50;17.60;;;;;;;13.11;53.97;101087.70;1811379;78;21040;-63
2021/10/03 06:58:37;;;;;;;23.98;16.27;;;;;;;13.17;53.36;101084.42;1818058;78;21078;-64
2021/10/03 07:01:04;;;;;;;19.82;15.25;;;;;;;13.25;52.81;101084.53;1811556;78;21482;-63
2021/10/03 07:03:31;;;;;;;17.00;13.40;;;;;;;13.31;51.95;101082.61;1809440;77;21530;-63
2021/10/03 07:05:57;;;;;;;19.35;13.00;;;;;;;13.39;51.27;101091.19;1807843;78;21101;-63
2021/10/03 07:08:23;;;;;;;15.03;12.05;;;;;;;13.45;50.73;101087.89;1818227;78;21020;-63
2021/10/03 07:10:51;;;;;;;19.27;12.45;;;;;;;13.51;50.15;101088.60;1812311;78;21029;-62
2021/10/03 07:13:19;;;;;;;20.97;12.95;;;;;;;13.57;49.72;101085.31;1810000;78;21183;-63
2021/10/03 07:15:45;;;;;;;23.50;13.32;;;;;;;13.64;49.58;101089.55;1807484;78;21666;-64
2021/10/03 07:18:12;;;;;;;16.30;11.83;;;;;;;13.71;49.22;101087.08;1808865;77;21242;-64
2021/10/03 07:20:40;;;;;;;17.42;10.90;;;;;;;13.77;48.63;101087.79;1797036;78;21017;-63
2021/10/03 07:23:07;;;;;;;17.30;10.68;;;;;;;13.83;48.05;101094.34;1816931;78;21076;-64
2021/10/03 07:25:34;;;;;;;13.32;9.93;;;;;;;13.89;47.62;101086.56;1816956;78;21435;-63
2021/10/03 07:28:01;;;;;;;15.63;10.45;;;;;;;13.94;47.15;101086.91;1811205;78;21059;-62
2021/10/03 07:30:28;;;;;;;15.53;10.93;;;;;;;13.99;47.02;101081.11;1809338;78;21090;-62
2021/10/03 07:32:56;;;;;;;15.20;9.88;;;;;;;14.06;46.80;101082.64;1816041;78;21006;-63
2021/10/03 07:35:22;;;;;;;14.60;9.53;;;;;;;14.10;46.70;101084.85;1811168;78;21025;-63
2021/10/03 07:37:48;;;;;;;14.73;8.78;;;;;;;14.15;46.10;101086.53;1829472;78;21195;-62
2021/10/03 07:40:15;;;;;;;14.25;8.40;;;;;;;14.22;45.57;101089.42;1825933;78;21038;-62
2021/10/03 07:42:42;;;;;;;13.13;8.48;;;;;;;14.28;44.83;101095.97;1806495;78;21044;-62
2021/10/03 07:45:09;;;;;;;12.23;8.33;;;;;;;14.32;44.56;101086.63;1796407;78;21017;-62
2021/10/03 07:47:36;;;;;;;12.07;9.13;;;;;;;14.39;44.29;101091.69;1809796;78;21065;-63
2021/10/03 07:50:03;;;;;;;12.23;9.28;;;;;;;14.44;44.01;101084.51;1845267;76;21062;-63
2021/10/03 07:52:30;;;;;;;13.32;9.15;;;;;;;14.50;43.83;101085.20;1853626;77;20973;-62
2021/10/03 07:54:56;;;;;;;15.85;9.85;;;;;;;14.55;43.58;101085.05;1853064;76;21048;-62
2021/10/03 07:57:22;;;;;;;11.88;8.45;;;;;;;14.60;43.61;101076.56;1843229;77;21024;-64
2021/10/03 07:59:49;;;;;;;13.28;8.70;;;;;;;14.66;43.37;101079.09;1829080;77;21029;-63
2021/10/03 08:02:16;;;;;;;11.25;8.40;;;;;;;14.71;43.23;101073.60;1828704;76;21187;-63
2021/10/03 08:04:42;;;;;;;12.35;9.03;;;;;;;14.75;43.18;101078.95;1842208;77;21036;-64
2021/10/03 08:07:09;;;;;;;12.45;8.55;;;;;;;14.81;43.14;101069.45;1833495;76;21002;-65
2021/10/03 08:09:35;;;;;;;14.87;8.88;;;;;;;14.88;43.13;101065.63;1834341;77;21075;-66
2021/10/03 08:12:02;;;;;;;12.45;7.55;;;;;;;14.96;43.02;101066.98;1848255;77;20966;-64
2021/10/03 08:14:29;;;;;;;10.95;7.65;;;;;;;15.03;42.78;101069.34;1836229;77;21935;-62
2021/10/03 08:16:56;;;;;;;14.78;8.65;;;;;;;15.09;42.62;101063.33;1844000;77;21021;-63
2021/10/03 08:19:22;;;;;;;13.95;8.20;;;;;;;15.16;42.74;101068.84;1829053;77;21622;-62
2021/10/03 08:21:56;;;;;;;11.05;8.10;;;;;;;15.24;42.56;101065.33;1853576;77;21075;-63
2021/10/03 08:24:22;;;;;;;9.00;6.58;;;;;;;15.32;42.59;101069.38;1863042;77;21029;-64
2021/10/03 08:26:49;;;;;;;9.00;7.42;;;;;;;15.40;42.09;101066.69;1837960;76;21177;-63
2021/10/03 08:29:15;;;;;;;10.05;7.28;;;;;;;15.47;42.27;101069.05;1832234;77;21048;-64
2021/10/03 08:31:42;;;;;;;13.25;7.17;;;;;;;15.56;41.88;101073.05;1829166;77;21008;-63
2021/10/03 08:34:08;;;;;;;13.15;7.58;;;;;;;15.64;41.47;101074.37;1849686;76;21009;-62
2021/10/03 08:36:35;;;;;;;13.80;6.75;;;;;;;15.70;41.18;101082.59;1840746;77;21037;-62
2021/10/03 08:39:01;;;;;;;11.20;6.40;;;;;;;15.79;40.72;101079.92;1841704;77;21161;-63
2021/10/03 08:41:28;;;;;;;10.15;6.37;;;;;;;15.88;40.58;101086.95;1834724;76;21052;-63
2021/10/03 08:43:54;;;;;;;7.35;5.85;;;;;;;15.95;40.12;101083.91;1854475;77;21210;-62
2021/10/03 08:46:24;;;;;;;9.50;6.08;;;;;;;16.04;40.06;101088.76;1828968;76;21068;-63
2021/10/03 08:48:52;;;;;;;11.50;5.67;;;;;;;16.12;39.75;101080.69;1846916;76;21139;-63
2021/10/03 08:51:18;;;;;;;8.13;5.92;;;;;;;16.21;39.15;101081.52;1860956;76;21504;-63
2021/10/03 08:53:45;;;;;;;13.03;6.20;;;;;;;16.30;39.08;101076.44;1858047;77;21017;-62
2021/10/03 08:56:11;;;;;;;6.17;5.58;;;;;;;16.38;38.81;101079.59;1822785;77;21107;-62
2021/10/03 08:58:37;;;;;;;7.40;6.40;;;;;;;16.45;38.40;101084.59;1850710;76;21012;-62
2021/10/03 09:01:05;;;;;;;10.23;5.50;;;;;;;16.55;38.03;101086.56;1818582;77;21090;-62
2021/10/03 09:03:35;;;;;;;9.55;5.83;;;;;;;16.61;37.85;101083.69;1848254;77;21536;-62
2021/10/03 09:06:03;;;;;;;8.15;5.90;;;;;;;16.69;37.93;101080.98;1852072;77;21072;-62
2021/10/03 09:08:32;;;;;;;8.85;5.70;;;;;;;16.78;37.82;101079.08;1829129;77;21586;-63
2021/10/03 09:11:04;;;;;;;8.15;5.28;;;;;;;16.87;37.58;101080.75;1828406;77;21088;-64
2021/10/03 09:13:36;;;;;;;9.28;5.75;;;;;;;16.96;37.56;101083.72;1827589;77;20947;-64
2021/10/03 09:16:18;;;;;;;6.53;5.67;;;;;;;17.07;37.46;101087.83;1820568;77;21009;-62
2021/10/03 09:18:53;;;;;;;9.48;5.90;;;;;;;17.16;37.34;101088.10;1857786;76;21532;-62
2021/10/03 09:21:34;;;;;;;9.45;6.25;;;;;;;17.27;37.11;101081.50;1861090;77;21010;-62
2021/10/03 09:24:13;;;;;;;7.25;5.67;;;;;;;17.38;37.10;101085.59;1852980;77;21091;-63
2021/10/03 09:27:03;;;;;;;6.70;5.28;;;;;;;17.48;37.00;101087.52;1827374;77;21072;-63
2021/10/03 09:29:33;;;;;;;7.20;5.58;;;;;;;17.58;37.12;101092.67;1839883;76;21967;-62
2021/10/03 09:32:14;;;;;;;7.35;5.92;;;;;;;17.69;37.22;101090.38;1832293;77;21033;-64
2021/10/03 09:34:51;;;;;;;9.35;5.92;;;;;;;17.79;37.03;101087.43;1862969;77;21018;-63
2021/10/03 09:37:37;;;;;;;7.17;5.80;;;;;;;17.92;37.17;101097.56;1843430;77;21044;-62
2021/10/03 09:40:13;;;;;;;8.85;5.72;;;;;;;18.03;37.17;101092.26;1816912;77;21000;-61
2021/10/03 09:42:40;;;;;;;9.80;5.58;;;;;;;18.15;37.18;101091.29;1826908;76;21743;-61
2021/10/03 09:45:13;;;;;;;6.03;5.33;;;;;;;18.27;36.93;101083.06;1850229;77;21056;-63
2021/10/03 09:47:42;;;;;;;10.55;5.12;;;;;;;18.37;36.67;101080.09;1840672;77;20989;-63
2021/10/03 09:50:10;;;;;;;7.25;5.58;;;;;;;18.48;36.25;101070.20;1851015;77;21487;-62
2021/10/03 09:52:38;;;;;;;8.95;5.10;;;;;;;18.59;36.09;101069.73;1848820;77;21001;-62
2021/10/03 09:55:08;;;;;;;8.05;4.60;;;;;;;18.70;35.86;101067.56;1845334;77;21124;-63
2021/10/03 09:57:35;;;;;;;5.50;4.70;;;;;;;18.80;35.41;101061.42;1839152;77;21008;-62
2021/10/03 10:00:01;;;;;;;5.08;4.58;;;;;;;18.91;35.25;101070.84;1833282;77;21485;-62
2021/10/03 10:02:28;;;;;;;7.67;4.65;;;;;;;19.00;34.88;101062.45;1841063;77;21544;-63
2021/10/03 10:04:54;;;;;;;8.55;4.65;;;;;;;19.10;34.84;101066.17;1828381;76;21508;-62
2021/10/03 10:07:21;;;;;;;9.00;5.08;;;;;;;19.21;34.75;101072.92;1830262;77;21946;-63
2021/10/03 10:09:48;;;;;;;5.53;4.72;;;;;;;19.29;34.67;101052.58;1843819;76;21591;-63
2021/10/03 10:12:21;;;;;;;6.28;4.65;;;;;;;19.38;34.76;101059.50;1834405;76;21041;-62
2021/10/03 10:14:59;;;;;;;7.10;4.80;;;;;;;19.48;34.84;101047.05;1855326;76;21063;-62
2021/10/03 10:17:38;;;;;;;7.67;5.30;;;;;;;19.58;34.72;101050.75;1845036;77;21489;-62
2021/10/03 10:20:24;;;;;;;7.30;4.55;;;;;;;19.69;34.60;101049.39;1840015;77;21768;-62
2021/10/03 10:22:55;;;;;;;8.28;4.70;;;;;;;19.80;34.35;101039.44;1829588;77;21011;-62
2021/10/03 10:25:45;;;;;;;6.37;5.05;;;;;;;19.91;34.19;101048.30;1828159;77;21001;-62
2021/10/03 10:28:29;;;;;;;5.15;4.60;;;;;;;20.00;34.09;101036.86;1844062;77;21064;-62
2021/10/03 10:31:19;;;;;;;8.63;4.85;;;;;;;20.11;33.83;101041.70;1829187;76;21507;-62
2021/10/03 10:34:02;;;;;;;7.35;5.95;;;;;;;20.20;33.65;101037.81;1833262;77;21086;-63
2021/10/03 10:36:51;;;;;;;5.10;4.10;;;;;;;20.31;33.64;101028.82;1842533;76;20985;-62
2021/10/03 10:39:19;;;;;;;5.85;5.25;;;;;;;20.38;33.70;101022.42;1864240;76;21578;-63
2021/10/03 10:41:54;;;;;;;9.10;4.97;;;;;;;20.48;33.67;101011.24;1843725;77;21017;-63
2021/10/03 10:44:36;;;;;;;6.25;5.15;;;;;;;20.57;33.58;101011.38;1845407;77;20997;-62
2021/10/03 10:47:14;;;;;;;4.97;4.47;;;;;;;20.67;33.33;101021.82;1837813;76;21656;-62
2021/10/03 10:49:45;;;;;;;7.47;4.53;;;;;;;20.79;33.33;101018.01;1829066;77;20960;-62
2021/10/03 10:52:25;;;;;;;7.90;4.37;;;;;;;20.87;33.02;101020.51;1831609;77;21016;-62
2021/10/03 10:55:12;;;;;;;5.30;4.15;;;;;;;20.98;32.88;101013.68;1832956;77;21075;-63
2021/10/03 10:57:52;;;;;;;5.40;3.72;;;;;;;21.10;32.34;101015.25;1854761;77;21150;-63
2021/10/03 11:00:24;;;;;;;4.60;3.80;;;;;;;21.21;32.13;100994.38;1865137;77;21189;-62
2021/10/03 11:03:02;;;;;;;6.55;4.22;;;;;;;21.30;32.11;101003.91;1845046;77;21457;-62
2021/10/03 11:05:43;;;;;;;4.80;3.58;;;;;;;21.39;31.98;100998.61;1839218;77;21016;-62
2021/10/03 11:08:16;;;;;;;6.45;3.98;;;;;;;21.51;31.84;100996.66;1829246;77;21053;-63
2021/10/03 11:11:00;;;;;;;5.22;4.30;;;;;;;21.63;31.61;100994.14;1836283;77;21027;-62
2021/10/03 11:13:47;;;;;;;6.97;4.25;;;;;;;21.72;31.45;100988.83;1850013;77;21044;-64
2021/10/03 11:16:38;;;;;;;4.25;3.85;;;;;;;21.83;31.39;101000.85;1838939;77;21049;-65
2021/10/03 11:19:24;;;;;;;4.78;4.00;;;;;;;21.92;31.12;100989.63;1860365;77;21025;-63
2021/10/03 11:21:56;;;;;;;4.85;4.45;;;;;;;22.04;30.82;100987.58;1861480;77;21564;-61